LFMD 301030Z AUTO 16007KT 110V200 CAVOK 21/12 Q1017

ElémentsDécodage
LFMD Station météo située sur l'aérodrome de CANNES Mandelieu
301030Z émis le 30 du mois à 10h30 UTC
AUTO Bulletin édité par un automate
16007KT vent du 160°, 07 noeuds
110V200 vent de direction variable entre 110° et 200°
CAVOK Ceiling And Visibility OK
- Visibilité de 10 Km ou plus
- Pas de nuage au-dessous de 1500m ou au-dessous de l'altitude minimale du secteur la plus élevée (si>1500m) et absence de CB
- pas de temps présent significatif
21/12 température 21°C, point de rosée 12°C
 soit une humidité relative de 56%
Q1017 la pression au niveau de la mer (QNH) est de 1017 hPa